createdAt,value
2023-02-27T00:02:29.029Z,-1.70
2023-02-27T00:04:57.962Z,-1.70
2023-02-27T00:07:28.660Z,-1.60
2023-02-27T00:09:56.805Z,-1.60
2023-02-27T00:12:24.976Z,-1.60
2023-02-27T00:14:53.114Z,-1.70
2023-02-27T00:17:21.259Z,-1.70
2023-02-27T00:19:50.750Z,-1.60
2023-02-27T00:22:18.903Z,-1.60
2023-02-27T00:24:47.044Z,-1.70
2023-02-27T00:27:15.137Z,-1.70
2023-02-27T00:29:43.296Z,-1.70
2023-02-27T00:32:11.507Z,-1.70
2023-02-27T00:34:39.690Z,-1.70
2023-02-27T00:37:09.243Z,-1.80
2023-02-27T00:39:37.384Z,-1.80
2023-02-27T00:42:05.593Z,-1.80
2023-02-27T00:44:33.722Z,-1.90
2023-02-27T00:47:02.047Z,-1.90
2023-02-27T00:49:30.215Z,-1.90
2023-02-27T00:51:58.432Z,-1.90
2023-02-27T00:54:28.046Z,-2.00
2023-02-27T00:56:56.207Z,-2.00
2023-02-27T00:59:24.364Z,-2.10
2023-02-27T01:01:54.186Z,-2.10
2023-02-27T01:04:22.512Z,-2.10
2023-02-27T01:06:50.698Z,-2.20
2023-02-27T01:09:18.846Z,-2.20
2023-02-27T01:11:48.562Z,-2.20
2023-02-27T01:14:16.694Z,-2.30
2023-02-27T01:16:46.921Z,-2.30
2023-02-27T01:19:16.730Z,-2.30
2023-02-27T01:21:45.256Z,-2.40
2023-02-27T01:24:13.808Z,-2.40
2023-02-27T01:26:42.388Z,-2.40
2023-02-27T01:29:12.254Z,-2.40
2023-02-27T01:31:40.503Z,-2.50
2023-02-27T01:34:08.873Z,-2.50
2023-02-27T01:36:37.273Z,-2.50
2023-02-27T01:39:05.444Z,-2.60
2023-02-27T01:41:34.352Z,-2.60
2023-02-27T01:44:06.562Z,-2.60
2023-02-27T01:46:37.084Z,-2.60
2023-02-27T01:49:12.888Z,-2.70
2023-02-27T01:51:47.507Z,-2.70
2023-02-27T01:54:21.401Z,-2.70
2023-02-27T01:56:51.590Z,-2.80
2023-02-27T01:59:20.781Z,-2.80
2023-02-27T02:01:54.006Z,-2.80
2023-02-27T02:04:28.386Z,-2.80
2023-02-27T02:07:05.995Z,-2.90
2023-02-27T02:09:40.776Z,-2.90
2023-02-27T02:12:13.597Z,-2.90
2023-02-27T02:14:44.352Z,-3.00
2023-02-27T02:17:23.741Z,-3.00
2023-02-27T02:20:42.178Z,-3.00
2023-02-27T02:23:48.920Z,-3.10
2023-02-27T02:26:46.784Z,-3.20
2023-02-27T02:30:08.015Z,-3.20
2023-02-27T02:33:22.925Z,-3.30
2023-02-27T02:36:32.025Z,-3.30
2023-02-27T02:39:30.876Z,-3.30
2023-02-27T02:42:09.242Z,-3.30
2023-02-27T02:44:49.333Z,-3.40
2023-02-27T02:47:31.818Z,-3.40
2023-02-27T02:50:12.387Z,-3.40
2023-02-27T02:52:56.130Z,-3.40
2023-02-27T02:55:35.491Z,-3.50
2023-02-27T02:58:11.172Z,-3.50
2023-02-27T03:00:46.988Z,-3.50
2023-02-27T03:03:27.720Z,-3.50
2023-02-27T03:06:04.856Z,-3.50
2023-02-27T03:08:39.065Z,-3.50
2023-02-27T03:11:09.241Z,-3.50
2023-02-27T03:13:44.603Z,-3.60
2023-02-27T03:16:19.354Z,-3.60
2023-02-27T03:18:55.677Z,-3.60
2023-02-27T03:21:38.046Z,-3.60
2023-02-27T03:24:13.991Z,-3.60
2023-02-27T03:26:48.617Z,-3.60
2023-02-27T03:29:27.405Z,-3.60
2023-02-27T03:32:03.160Z,-3.60
2023-02-27T03:34:36.060Z,-3.60
2023-02-27T03:37:25.803Z,-3.60
2023-02-27T03:40:06.432Z,-3.70
2023-02-27T03:42:41.629Z,-3.70
2023-02-27T03:45:26.662Z,-3.70
2023-02-27T03:47:55.249Z,-3.70
2023-02-27T03:50:23.978Z,-3.70
2023-02-27T03:52:52.968Z,-3.70
2023-02-27T03:55:26.222Z,-3.70
2023-02-27T03:57:56.494Z,-3.70
2023-02-27T04:00:27.484Z,-3.80
2023-02-27T04:03:01.274Z,-3.80
2023-02-27T04:05:31.499Z,-3.80
2023-02-27T04:08:40.492Z,-3.80
2023-02-27T04:11:34.661Z,-3.80
2023-02-27T04:14:25.459Z,-3.80
2023-02-27T04:17:23.924Z,-3.80
2023-02-27T04:20:27.389Z,-3.80
2023-02-27T04:23:03.693Z,-3.80
2023-02-27T04:25:55.482Z,-3.80
2023-02-27T04:28:32.677Z,-3.70
2023-02-27T04:31:13.668Z,-3.70
2023-02-27T04:33:50.092Z,-3.70
2023-02-27T04:36:29.002Z,-3.70
2023-02-27T04:39:09.466Z,-3.60
2023-02-27T04:41:45.884Z,-3.60
2023-02-27T04:44:16.576Z,-3.60
2023-02-27T04:46:48.692Z,-3.50
2023-02-27T04:49:25.975Z,-3.50
2023-02-27T04:52:01.863Z,-3.50
2023-02-27T04:54:36.261Z,-3.50
2023-02-27T04:57:10.489Z,-3.50
2023-02-27T04:59:46.259Z,-3.50
2023-02-27T05:02:24.891Z,-3.40
2023-02-27T05:04:58.683Z,-3.40
2023-02-27T05:07:33.908Z,-3.40
2023-02-27T05:10:08.260Z,-3.40
2023-02-27T05:12:45.333Z,-3.40
2023-02-27T05:15:22.004Z,-3.40
2023-02-27T05:18:00.521Z,-3.40
2023-02-27T05:20:53.854Z,-3.40
2023-02-27T05:23:35.429Z,-3.30
2023-02-27T05:26:15.406Z,-3.30
2023-02-27T05:28:55.271Z,-3.30
2023-02-27T05:31:35.291Z,-3.30
2023-02-27T05:34:13.333Z,-3.30
2023-02-27T05:36:48.815Z,-3.30
2023-02-27T05:39:21.384Z,-3.20
2023-02-27T05:41:55.340Z,-3.30
2023-02-27T05:44:28.960Z,-3.20
2023-02-27T05:47:01.449Z,-3.20
2023-02-27T05:49:36.278Z,-3.20
2023-02-27T05:52:10.632Z,-3.10
2023-02-27T05:54:48.451Z,-3.10
2023-02-27T05:57:24.798Z,-3.10
2023-02-27T06:00:03.980Z,-3.10
2023-02-27T06:02:40.349Z,-3.10
2023-02-27T06:05:14.546Z,-3.00
2023-02-27T06:07:43.055Z,-3.00
2023-02-27T06:10:15.700Z,-3.00
2023-02-27T06:12:43.952Z,-2.90
2023-02-27T06:15:13.148Z,-2.90
2023-02-27T06:17:41.598Z,-2.90
2023-02-27T06:20:13.357Z,-2.90
2023-02-27T06:22:41.952Z,-2.90
2023-02-27T06:25:11.358Z,-2.90
2023-02-27T06:27:39.684Z,-2.80
2023-02-27T06:30:09.741Z,-2.80
2023-02-27T06:32:38.041Z,-2.70
2023-02-27T06:35:07.612Z,-2.70
2023-02-27T06:37:37.179Z,-2.70
2023-02-27T06:40:11.445Z,-2.60
2023-02-27T06:42:39.736Z,-2.60
2023-02-27T06:45:10.120Z,-2.50
2023-02-27T06:47:38.836Z,-2.50
2023-02-27T06:50:08.509Z,-2.50
2023-02-27T06:52:38.853Z,-2.40
2023-02-27T06:55:09.375Z,-2.40
2023-02-27T06:57:37.562Z,-2.30
2023-02-27T07:00:08.239Z,-2.30
2023-02-27T07:02:36.401Z,-2.20
2023-02-27T07:05:07.888Z,-2.10
2023-02-27T07:07:38.948Z,-2.10
2023-02-27T07:10:12.237Z,-2.00
2023-02-27T07:12:41.666Z,-2.00
2023-02-27T07:15:11.328Z,-1.90
2023-02-27T07:17:39.511Z,-1.90
2023-02-27T07:20:11.542Z,-1.80
2023-02-27T07:22:42.201Z,-1.70
2023-02-27T07:25:11.155Z,-1.70
2023-02-27T07:27:39.510Z,-1.60
2023-02-27T07:30:09.665Z,-1.60
2023-02-27T07:32:37.803Z,-1.50
2023-02-27T07:35:07.196Z,-1.40
2023-02-27T07:37:35.458Z,-1.40
2023-02-27T07:40:07.550Z,-1.30
2023-02-27T07:42:36.218Z,-1.20
2023-02-27T07:45:04.924Z,-1.20
2023-02-27T07:47:33.118Z,-1.10
2023-02-27T07:50:01.225Z,-1.00
2023-02-27T07:54:58.471Z,-0.90
2023-02-27T07:57:28.017Z,-0.80
2023-02-27T07:59:56.172Z,-0.70
2023-02-27T08:02:24.375Z,-0.70
2023-02-27T08:04:52.679Z,-0.60
2023-02-27T08:07:20.798Z,-0.50
2023-02-27T08:09:48.991Z,-0.40
2023-02-27T08:12:17.123Z,-0.30
2023-02-27T08:14:46.669Z,-0.20
2023-02-27T08:17:15.032Z,-0.10
2023-02-27T08:19:43.284Z,-0.10
2023-02-27T08:22:12.313Z,0.10
2023-02-27T08:24:41.078Z,0.10
2023-02-27T08:27:09.886Z,0.20
2023-02-27T08:29:38.036Z,0.30
2023-02-27T08:32:07.729Z,0.40
2023-02-27T08:34:35.938Z,0.50
2023-02-27T08:37:04.486Z,0.60
2023-02-27T08:39:32.611Z,0.60
2023-02-27T08:42:00.705Z,0.70
2023-02-27T08:44:28.832Z,0.80
2023-02-27T08:46:56.984Z,0.80
2023-02-27T08:49:26.587Z,0.90
2023-02-27T08:51:54.964Z,1.00
2023-02-27T08:54:23.122Z,1.00
2023-02-27T08:56:51.391Z,1.10
2023-02-27T08:59:19.579Z,1.10
2023-02-27T09:01:47.810Z,1.20
2023-02-27T09:04:16.145Z,1.20
2023-02-27T09:06:45.730Z,1.20
2023-02-27T09:09:13.937Z,1.30
2023-02-27T09:11:42.491Z,1.30
2023-02-27T09:14:10.720Z,1.40
2023-02-27T09:16:39.081Z,1.40
2023-02-27T09:19:07.372Z,1.50
2023-02-27T09:21:37.300Z,1.50
2023-02-27T09:24:19.232Z,1.60
2023-02-27T09:26:48.658Z,1.60
2023-02-27T09:29:17.237Z,1.70
2023-02-27T09:31:45.699Z,1.70
2023-02-27T09:34:16.625Z,1.80
2023-02-27T09:36:44.820Z,1.90
2023-02-27T09:39:14.303Z,2.00
2023-02-27T09:41:54.266Z,2.20
2023-02-27T09:44:46.286Z,2.40
2023-02-27T09:47:24.198Z,2.70
2023-02-27T09:50:08.107Z,3.00
2023-02-27T09:52:38.524Z,3.30
2023-02-27T09:55:23.574Z,3.70
2023-02-27T09:58:04.344Z,4.10
2023-02-27T10:00:49.092Z,4.30
2023-02-27T10:03:43.259Z,4.40
2023-02-27T10:06:26.558Z,4.60
2023-02-27T10:09:18.560Z,4.70
2023-02-27T10:12:07.337Z,4.70
2023-02-27T10:14:44.361Z,4.60
2023-02-27T10:17:23.487Z,4.70
2023-02-27T10:19:54.400Z,4.60
2023-02-27T10:22:31.560Z,4.50
2023-02-27T10:25:06.499Z,4.60
2023-02-27T10:27:40.154Z,4.50
2023-02-27T10:30:29.211Z,4.50
2023-02-27T10:33:10.416Z,4.40
2023-02-27T10:35:42.235Z,4.50
2023-02-27T10:38:17.989Z,4.60
2023-02-27T10:40:47.957Z,4.70
2023-02-27T10:43:19.433Z,4.80
2023-02-27T10:45:47.784Z,5.10
2023-02-27T10:48:17.000Z,5.60
2023-02-27T10:50:50.822Z,6.00
2023-02-27T10:53:23.598Z,6.30
2023-02-27T10:56:02.262Z,6.40
2023-02-27T10:58:35.645Z,6.40
2023-02-27T11:01:07.328Z,6.40
2023-02-27T11:03:41.354Z,6.30
2023-02-27T11:06:20.746Z,6.30
2023-02-27T11:09:19.288Z,6.10
2023-02-27T11:11:47.653Z,6.00
2023-02-27T11:14:31.607Z,6.10
2023-02-27T11:17:02.150Z,6.20
2023-02-27T11:19:37.140Z,6.20
2023-02-27T11:22:15.230Z,6.10
2023-02-27T11:24:44.261Z,6.00
2023-02-27T11:27:26.385Z,5.90
2023-02-27T11:30:02.732Z,5.80
2023-02-27T11:32:43.038Z,5.60
2023-02-27T11:35:29.015Z,5.40
2023-02-27T11:38:01.100Z,5.30
2023-02-27T11:40:33.619Z,5.30
2023-02-27T11:43:08.212Z,5.30
2023-02-27T11:46:16.232Z,5.40
2023-02-27T11:48:36.231Z,5.30
2023-02-27T11:51:36.812Z,5.20
2023-02-27T11:54:19.218Z,5.20
2023-02-27T11:56:54.219Z,5.10
2023-02-27T11:59:38.085Z,5.10
2023-02-27T12:02:21.626Z,5.10
2023-02-27T12:04:56.419Z,5.00
2023-02-27T12:07:30.369Z,4.90
2023-02-27T12:10:07.016Z,5.00
2023-02-27T12:12:46.306Z,5.10
2023-02-27T12:15:28.671Z,5.50
2023-02-27T12:18:13.990Z,6.10
2023-02-27T12:30:33.073Z,8.60
2023-02-27T12:33:14.283Z,8.50
2023-02-27T12:35:50.836Z,8.50
2023-02-27T12:38:21.803Z,8.20
2023-02-27T12:41:16.505Z,7.80
2023-02-27T12:43:57.079Z,8.10
2023-02-27T12:46:39.683Z,8.80
2023-02-27T12:50:03.938Z,8.50
2023-02-27T12:52:49.710Z,7.90
2023-02-27T12:55:24.639Z,7.50
2023-02-27T12:58:26.807Z,7.10
2023-02-27T13:01:01.266Z,7.00
2023-02-27T13:03:41.367Z,7.00
2023-02-27T13:06:21.344Z,7.60
2023-02-27T13:09:21.103Z,8.00
2023-02-27T13:12:01.937Z,8.90
2023-02-27T13:14:48.558Z,10.50
2023-02-27T13:17:26.896Z,11.10
2023-02-27T13:20:05.867Z,10.80
2023-02-27T13:22:45.025Z,10.00
2023-02-27T13:25:16.691Z,9.30
2023-02-27T13:27:52.087Z,9.00
2023-02-27T13:30:28.412Z,8.80
2023-02-27T13:33:13.637Z,9.30
2023-02-27T13:35:53.119Z,10.70
2023-02-27T13:38:46.430Z,12.30
2023-02-27T13:41:40.494Z,13.50
2023-02-27T13:44:49.240Z,14.30
2023-02-27T13:47:42.033Z,14.80
2023-02-27T13:50:53.786Z,15.20
2023-02-27T13:53:24.433Z,15.40
2023-02-27T13:56:20.416Z,15.60
2023-02-27T13:58:49.636Z,15.80
2023-02-27T14:01:23.780Z,15.90
2023-02-27T14:03:59.401Z,15.90
2023-02-27T14:06:29.579Z,15.80
2023-02-27T14:09:12.867Z,15.80
2023-02-27T14:11:56.292Z,15.60
2023-02-27T14:14:45.805Z,14.70
2023-02-27T14:17:35.788Z,14.00
2023-02-27T14:20:11.549Z,13.40
2023-02-27T14:22:48.275Z,13.10
2023-02-27T14:25:27.177Z,12.90
2023-02-27T14:27:58.981Z,13.20
2023-02-27T14:30:35.592Z,13.20
2023-02-27T14:33:39.061Z,13.40
2023-02-27T14:36:17.161Z,13.30
2023-02-27T14:38:45.455Z,13.10
2023-02-27T14:41:32.356Z,12.70
2023-02-27T14:44:01.185Z,11.90
2023-02-27T14:46:32.615Z,11.00
2023-02-27T14:49:04.588Z,10.10
2023-02-27T14:51:38.036Z,9.50
2023-02-27T14:54:15.435Z,8.90
2023-02-27T14:56:55.518Z,8.30
2023-02-27T14:59:26.209Z,7.80
2023-02-27T15:01:57.051Z,7.40
2023-02-27T15:04:30.788Z,7.20
2023-02-27T15:07:02.055Z,7.20
2023-02-27T15:09:40.491Z,7.50
2023-02-27T15:12:10.358Z,7.80
2023-02-27T15:14:40.784Z,7.60
2023-02-27T15:17:18.293Z,7.20
2023-02-27T15:19:51.952Z,6.80
2023-02-27T15:22:37.919Z,6.50
2023-02-27T15:25:08.393Z,6.00
2023-02-27T15:27:38.492Z,5.70
2023-02-27T15:30:19.917Z,5.50
2023-02-27T15:32:48.261Z,5.20
2023-02-27T15:35:21.213Z,5.00
2023-02-27T15:37:55.822Z,4.80
2023-02-27T15:40:28.226Z,4.60
2023-02-27T15:42:58.279Z,4.90
2023-02-27T15:45:31.653Z,6.30
2023-02-27T15:48:00.535Z,7.50
2023-02-27T15:50:34.006Z,8.10
2023-02-27T15:53:13.420Z,7.90
2023-02-27T15:55:46.058Z,7.90
2023-02-27T15:58:25.303Z,8.30
2023-02-27T16:01:00.990Z,8.00
2023-02-27T16:03:36.624Z,7.40
2023-02-27T16:06:13.044Z,6.80
2023-02-27T16:08:49.219Z,6.30
2023-02-27T16:11:21.921Z,5.90
2023-02-27T16:13:50.732Z,5.60
2023-02-27T16:16:35.087Z,5.20
2023-02-27T16:19:16.852Z,4.90
2023-02-27T16:22:07.670Z,4.60
2023-02-27T16:24:37.278Z,4.30
2023-02-27T16:27:06.379Z,4.00
2023-02-27T16:29:40.656Z,3.70
2023-02-27T16:32:24.946Z,3.50
2023-02-27T16:35:02.277Z,3.30
2023-02-27T16:37:37.968Z,3.10
2023-02-27T16:40:15.631Z,2.90
2023-02-27T16:42:45.218Z,2.80
2023-02-27T16:45:18.350Z,2.60
2023-02-27T16:47:50.431Z,2.50
2023-02-27T16:50:24.771Z,2.40
2023-02-27T16:52:53.013Z,2.30
2023-02-27T16:55:22.944Z,2.30
2023-02-27T16:57:51.324Z,2.30
2023-02-27T17:00:22.512Z,2.20
2023-02-27T17:02:52.648Z,2.20
2023-02-27T17:05:21.096Z,2.20
2023-02-27T17:07:49.470Z,2.20
2023-02-27T17:10:20.005Z,2.10
2023-02-27T17:12:49.743Z,2.10
2023-02-27T17:15:18.819Z,2.00
2023-02-27T17:17:47.521Z,1.90
2023-02-27T17:20:16.008Z,1.80
2023-02-27T17:22:46.329Z,1.80
2023-02-27T17:25:15.716Z,1.60
2023-02-27T17:27:44.970Z,1.60
2023-02-27T17:30:16.127Z,1.40
2023-02-27T17:32:44.437Z,1.40
2023-02-27T17:35:12.958Z,1.30
2023-02-27T17:37:41.260Z,1.20
2023-02-27T17:40:12.279Z,1.10
2023-02-27T17:42:40.659Z,1.00
2023-02-27T17:45:11.456Z,0.90
2023-02-27T17:47:43.734Z,0.90
2023-02-27T17:50:13.144Z,0.80
2023-02-27T17:52:41.765Z,0.70
2023-02-27T17:55:11.858Z,0.60
2023-02-27T17:57:41.063Z,0.50
2023-02-27T18:00:15.415Z,0.50
2023-02-27T18:02:47.946Z,0.40
2023-02-27T18:05:16.717Z,0.30
2023-02-27T18:07:44.969Z,0.30
2023-02-27T18:10:15.786Z,0.20
2023-02-27T18:12:44.858Z,0.10
2023-02-27T18:15:13.457Z,0.10
2023-02-27T18:17:45.540Z,0.10
2023-02-27T18:20:14.263Z,0.10
2023-02-27T18:22:42.431Z,0.00
2023-02-27T18:25:10.945Z,0.00
2023-02-27T18:27:39.180Z,-0.10
2023-02-27T18:30:08.961Z,-0.10
2023-02-27T18:32:37.208Z,-0.20
2023-02-27T18:35:07.650Z,-0.20
2023-02-27T18:37:35.946Z,-0.30
2023-02-27T18:40:05.901Z,-0.40
2023-02-27T18:42:34.481Z,-0.50
2023-02-27T18:45:03.614Z,-0.50
2023-02-27T18:47:32.132Z,-0.50
2023-02-27T18:50:00.603Z,-0.60
2023-02-27T18:52:30.872Z,-0.60
2023-02-27T18:55:00.015Z,-0.70
2023-02-27T18:57:28.165Z,-0.70
2023-02-27T18:59:56.518Z,-0.80
2023-02-27T19:02:24.886Z,-0.80
2023-02-27T19:04:53.316Z,-0.90
2023-02-27T19:07:23.326Z,-0.90
2023-02-27T19:09:53.045Z,-0.90
2023-02-27T19:12:21.336Z,-1.00
2023-02-27T19:14:49.758Z,-1.00
2023-02-27T19:17:18.033Z,-1.10
2023-02-27T19:19:46.288Z,-1.10
2023-02-27T19:22:14.552Z,-1.20
2023-02-27T19:24:42.788Z,-1.20
2023-02-27T19:27:12.473Z,-1.30
2023-02-27T19:29:40.695Z,-1.30
2023-02-27T19:32:09.156Z,-1.40
2023-02-27T19:34:37.441Z,-1.40
2023-02-27T19:37:05.700Z,-1.40
2023-02-27T19:39:34.316Z,-1.50
2023-02-27T19:42:02.597Z,-1.50
2023-02-27T19:44:32.240Z,-1.50
2023-02-27T19:47:00.621Z,-1.60
2023-02-27T19:49:31.536Z,-1.60
2023-02-27T19:51:59.948Z,-1.60
2023-02-27T19:54:28.249Z,-1.60
2023-02-27T19:56:56.611Z,-1.60
2023-02-27T19:59:24.942Z,-1.60
2023-02-27T20:01:54.941Z,-1.60
2023-02-27T20:04:23.408Z,-1.60
2023-02-27T20:06:53.691Z,-1.60
2023-02-27T20:09:23.275Z,-1.60
2023-02-27T20:11:56.869Z,-1.60
2023-02-27T20:14:25.789Z,-1.60
2023-02-27T20:16:59.111Z,-1.60
2023-02-27T20:19:27.500Z,-1.60
2023-02-27T20:21:56.524Z,-1.60
2023-02-27T20:24:25.331Z,-1.60
2023-02-27T20:26:54.210Z,-1.60
2023-02-27T20:29:26.306Z,-1.60
2023-02-27T20:31:57.272Z,-1.60
2023-02-27T20:34:27.557Z,-1.60
2023-02-27T20:36:57.617Z,-1.70
2023-02-27T20:39:27.971Z,-1.70
2023-02-27T20:41:58.409Z,-1.70
2023-02-27T20:44:26.845Z,-1.70
2023-02-27T20:46:55.253Z,-1.70
2023-02-27T20:49:23.756Z,-1.70
2023-02-27T20:51:55.897Z,-1.80
2023-02-27T20:54:24.226Z,-1.70
2023-02-27T20:56:54.353Z,-1.80
2023-02-27T20:59:25.222Z,-1.70
2023-02-27T21:01:55.062Z,-1.70
2023-02-27T21:04:26.287Z,-1.70
2023-02-27T21:06:58.270Z,-1.80
2023-02-27T21:09:26.562Z,-1.80
2023-02-27T21:11:55.084Z,-1.70
2023-02-27T21:14:23.848Z,-1.70
2023-02-27T21:16:52.068Z,-1.70
2023-02-27T21:19:20.823Z,-1.70
2023-02-27T21:21:49.215Z,-1.70
2023-02-27T21:24:20.558Z,-1.70
2023-02-27T21:26:49.728Z,-1.70
2023-02-27T21:29:21.332Z,-1.70
2023-02-27T21:31:51.887Z,-1.70
2023-02-27T21:34:23.937Z,-1.70
2023-02-27T21:36:53.059Z,-1.70
2023-02-27T21:39:25.957Z,-1.70
2023-02-27T21:41:54.793Z,-1.70
2023-02-27T21:44:25.323Z,-1.70
2023-02-27T21:46:54.611Z,-1.70
2023-02-27T21:49:26.481Z,-1.80
2023-02-27T21:51:54.762Z,-1.80
2023-02-27T21:54:24.616Z,-1.80
2023-02-27T21:56:53.037Z,-1.80
2023-02-27T21:59:21.876Z,-1.90
2023-02-27T22:01:50.420Z,-1.90
2023-02-27T22:04:21.281Z,-1.90
2023-02-27T22:06:51.293Z,-1.90
2023-02-27T22:09:20.140Z,-2.00
2023-02-27T22:11:50.346Z,-2.00
2023-02-27T22:14:18.763Z,-2.00
2023-02-27T22:16:47.407Z,-2.00
2023-02-27T22:19:21.888Z,-2.10
2023-02-27T22:21:50.346Z,-2.10
2023-02-27T22:24:18.681Z,-2.10
2023-02-27T22:26:47.739Z,-2.10
2023-02-27T22:29:17.552Z,-2.10
2023-02-27T22:31:46.042Z,-2.20
2023-02-27T22:34:18.633Z,-2.20
2023-02-27T22:36:52.198Z,-2.20
2023-02-27T22:39:21.519Z,-2.30
2023-02-27T22:41:50.033Z,-2.30
2023-02-27T22:44:19.738Z,-2.30
2023-02-27T22:46:50.651Z,-2.30
2023-02-27T22:49:21.892Z,-2.30
2023-02-27T22:51:51.935Z,-2.30
2023-02-27T22:54:22.877Z,-2.40
2023-02-27T22:56:55.274Z,-2.40
2023-02-27T22:59:27.415Z,-2.40
2023-02-27T23:01:55.664Z,-2.40
2023-02-27T23:04:23.916Z,-2.40
2023-02-27T23:06:53.027Z,-2.40
2023-02-27T23:09:25.380Z,-2.40
2023-02-27T23:11:54.335Z,-2.50
2023-02-27T23:14:23.122Z,-2.50
2023-02-27T23:16:52.646Z,-2.50
2023-02-27T23:19:22.984Z,-2.50
2023-02-27T23:21:51.151Z,-2.50
2023-02-27T23:24:20.403Z,-2.50
2023-02-27T23:26:51.567Z,-2.50
2023-02-27T23:29:20.451Z,-2.50
2023-02-27T23:31:49.003Z,-2.50
2023-02-27T23:34:18.630Z,-2.50
2023-02-27T23:36:46.879Z,-2.50
2023-02-27T23:39:15.058Z,-2.50
2023-02-27T23:41:43.239Z,-2.40
2023-02-27T23:44:29.064Z,-2.40
2023-02-27T23:46:57.712Z,-2.40
2023-02-27T23:49:27.265Z,-2.40
2023-02-27T23:51:55.472Z,-2.40
2023-02-27T23:54:23.668Z,-2.30
2023-02-27T23:56:51.988Z,-2.30
2023-02-27T23:59:20.162Z,-2.20
